Aviation Digital Data Service (ADDS)

Output produced by METARs form (1524 UTC 23 January 2019)
found at http://www.aviationweather.gov/metar/data/
 
Forecast for: NFNA (NAUSORI FIJI , FJ)
Text: TAF NFNA 231106Z 2312/2412 13005KT 9999 FEW020
Forecast period: 1200 UTC 23 January 2019 to 1200 UTC 24 January 2019
Forecast type: FROM: standard forecast or significant change
Winds: from the SE (130 degrees) at 6 MPH (5 knots; 2.6 m/s)
Visibility: 6 or more miles 10+ km)
Ceiling: at least 12,000 feet AGL
Clouds: few clouds at 2000 feet AGL
Weather: no significant weather forecast for this period